Airfield :
LOGIN :

Register | Disclaimer

   EN    FR    IT 

 










Legend :    VFR   Marginal VFR   IFR   Intensive IFR   Very Intensive IFR
Visi :
Ceiling :
>= 8 km
>= 3000ft
5 to 8 km
1000 to 3000 ft
1500m to 5 km
500 to 1000 ft
800 to 1500m
200 to 500 ft
< 800m
< 200 ft
Symbols :   Thunderstorms  Fog  Heavy snow  Heavy precipitations  Wind > 20 kt
SIGMETs :     Misc.  Thunderstorms  Icing  Turbulence  Mountain Waves  Volcanic Ashes






- Airport Elevation : 137 ft
- IATA code : THN


ESGT - Trollhattan-Vanersborg

CURRENT METAR :
  • 110850Z VRB03KT 9999 BKN038 19/12 Q1026

EXPIRED METARs :
  • 110820Z 12004KT 080V170 9999 BKN036 19/11 Q1026
  • 110750Z 12003KT 080V170 9999 BKN035 19/12 Q1026
  • 110720Z 12005KT 9999 BKN034 18/11 Q1026
  • 110650Z 11005KT 9999 BKN032 18/12 Q1025

TAF TAF ESGT
Valid from the 11 at 09:00 until the 11 at 14:00 UTC


110830Z 1109/1114 11006KT 9999 BKN035



MET'MAP, your aeronautical weather chart ! - Copyright ORBIFLY December 2007 - Disclaimer

ORBIFLY MET'MAP TEAM :

Programming & Development : Alexandra Zaïnal
Concept & original design : Baudouin d'Aumeries
Assistance for programming : Marc-Olivier Méhu
Technical & hardware support : Manuel Goepfert

Contact : metmap@orbifly.com




SOURCES & CREDITS :

   NOAA